createdAt,value
2023-02-28T00:01:28.629Z,0.59
2023-02-28T00:03:56.399Z,0.57
2023-02-28T00:06:24.613Z,0.56
2023-02-28T00:08:51.622Z,0.53
2023-02-28T00:11:18.516Z,0.53
2023-02-28T00:13:46.992Z,0.51
2023-02-28T00:16:17.520Z,0.52
2023-02-28T00:18:44.362Z,0.53
2023-02-28T00:21:11.190Z,0.53
2023-02-28T00:23:38.197Z,0.48
2023-02-28T00:26:05.180Z,0.44
2023-02-28T00:28:32.665Z,0.41
2023-02-28T00:31:00.669Z,0.39
2023-02-28T00:33:28.679Z,0.37
2023-02-28T00:36:06.920Z,0.36
2023-02-28T00:38:37.215Z,0.36
2023-02-28T00:41:05.059Z,0.35
2023-02-28T00:43:37.218Z,0.36
2023-02-28T00:46:05.333Z,0.36
2023-02-28T00:48:32.941Z,0.37
2023-02-28T00:50:59.987Z,0.36
2023-02-28T00:53:26.943Z,0.37
2023-02-28T00:55:54.040Z,0.38
2023-02-28T00:58:20.904Z,0.38
2023-02-28T01:00:50.901Z,0.37
2023-02-28T01:03:19.222Z,0.36
2023-02-28T01:05:47.196Z,0.36
2023-02-28T01:08:15.329Z,0.35
2023-02-28T01:10:42.861Z,0.35
2023-02-28T01:13:10.096Z,0.36
2023-02-28T01:15:40.933Z,0.36
2023-02-28T01:18:07.792Z,0.35
2023-02-28T01:20:37.888Z,0.32
2023-02-28T01:23:04.654Z,0.30
2023-02-28T01:25:31.557Z,0.30
2023-02-28T01:27:58.405Z,0.30
2023-02-28T01:30:28.477Z,0.30
2023-02-28T01:32:55.577Z,0.28
2023-02-28T01:35:22.476Z,0.26
2023-02-28T01:37:49.260Z,0.24
2023-02-28T01:40:16.328Z,0.24
2023-02-28T01:42:43.171Z,0.25
2023-02-28T01:45:21.069Z,0.26
2023-02-28T01:47:51.522Z,0.26
2023-02-28T01:50:23.257Z,0.25
2023-02-28T01:52:51.234Z,0.23
2023-02-28T01:55:21.651Z,0.23
2023-02-28T01:57:55.545Z,0.24
2023-02-28T02:00:27.263Z,0.25
2023-02-28T02:02:59.017Z,0.27
2023-02-28T02:05:31.637Z,0.28
2023-02-28T02:08:12.080Z,0.28
2023-02-28T02:10:55.167Z,0.26
2023-02-28T02:13:53.316Z,0.26
2023-02-28T02:16:39.076Z,0.24
2023-02-28T02:19:37.102Z,0.22
2023-02-28T02:22:22.430Z,0.19
2023-02-28T02:24:59.500Z,0.19
2023-02-28T02:27:32.937Z,0.19
2023-02-28T02:30:15.146Z,0.17
2023-02-28T02:32:48.129Z,0.17
2023-02-28T02:35:15.773Z,0.18
2023-02-28T02:38:04.051Z,0.17
2023-02-28T02:40:38.752Z,0.14
2023-02-28T02:43:26.156Z,0.14
2023-02-28T02:46:02.965Z,0.14
2023-02-28T02:48:32.461Z,0.11
2023-02-28T02:51:04.026Z,0.11
2023-02-28T02:53:38.225Z,0.11
2023-02-28T02:56:07.142Z,0.10
2023-02-28T02:58:42.513Z,0.10
2023-02-28T03:01:28.749Z,0.09
2023-02-28T03:04:04.063Z,0.08
2023-02-28T03:06:30.972Z,0.07
2023-02-28T03:08:57.842Z,0.06
2023-02-28T03:11:24.737Z,0.06
2023-02-28T03:14:50.604Z,0.05
2023-02-28T03:17:29.534Z,0.05
2023-02-28T03:20:28.689Z,0.05
2023-02-28T03:23:11.329Z,0.06
2023-02-28T03:25:45.840Z,0.05
2023-02-28T03:28:18.167Z,0.05
2023-02-28T03:31:09.736Z,0.05
2023-02-28T03:33:41.574Z,0.06
2023-02-28T03:36:18.171Z,0.06
2023-02-28T03:39:07.495Z,0.06
2023-02-28T03:41:41.968Z,0.07
2023-02-28T03:44:15.918Z,0.06
2023-02-28T03:46:54.798Z,0.06
2023-02-28T03:49:29.414Z,0.07
2023-02-28T03:52:00.263Z,0.08
2023-02-28T03:54:32.852Z,0.09
2023-02-28T03:57:08.185Z,0.09
2023-02-28T03:59:42.697Z,0.09
2023-02-28T04:02:09.794Z,0.08
2023-02-28T04:04:36.912Z,0.07
2023-02-28T04:07:07.717Z,0.07
2023-02-28T04:09:35.239Z,0.09
2023-02-28T04:12:02.036Z,0.09
2023-02-28T04:14:28.847Z,0.09
2023-02-28T04:16:55.642Z,0.09
2023-02-28T04:19:42.435Z,0.08
2023-02-28T04:22:10.177Z,0.07
2023-02-28T04:24:36.946Z,0.09
2023-02-28T04:27:03.709Z,0.09
2023-02-28T04:29:32.795Z,0.11
2023-02-28T04:32:02.048Z,0.10
2023-02-28T04:34:31.139Z,0.10
2023-02-28T04:37:14.522Z,0.10
2023-02-28T04:39:42.714Z,0.11
2023-02-28T04:42:10.570Z,0.11
2023-02-28T04:44:37.428Z,0.12
2023-02-28T04:47:04.179Z,0.11
2023-02-28T04:49:31.029Z,0.12
2023-02-28T04:51:57.756Z,0.13
2023-02-28T04:54:25.010Z,0.15
2023-02-28T04:56:51.961Z,0.15
2023-02-28T04:59:18.774Z,0.16
2023-02-28T05:01:49.709Z,0.15
2023-02-28T05:04:17.639Z,0.12
2023-02-28T05:06:44.882Z,0.08
2023-02-28T05:09:14.533Z,0.07
2023-02-28T05:11:41.744Z,0.05
2023-02-28T05:14:13.557Z,-0.00
2023-02-28T05:16:40.515Z,-0.05
2023-02-28T05:19:07.585Z,-0.10
2023-02-28T05:21:37.461Z,-0.12
2023-02-28T05:24:07.169Z,-0.16
2023-02-28T05:26:40.588Z,-0.18
2023-02-28T05:29:08.203Z,-0.19
2023-02-28T05:31:35.613Z,-0.21
2023-02-28T05:34:04.740Z,-0.22
2023-02-28T05:36:31.985Z,-0.23
2023-02-28T05:38:59.705Z,-0.24
2023-02-28T05:41:26.910Z,-0.23
2023-02-28T05:43:53.901Z,-0.23
2023-02-28T05:46:20.772Z,-0.24
2023-02-28T05:48:49.082Z,-0.25
2023-02-28T05:51:16.195Z,-0.24
2023-02-28T05:53:43.373Z,-0.23
2023-02-28T05:56:10.224Z,-0.22
2023-02-28T05:58:37.024Z,-0.22
2023-02-28T06:01:48.684Z,-0.22
2023-02-28T06:04:30.724Z,-0.19
2023-02-28T06:06:58.728Z,-0.21
2023-02-28T06:09:25.578Z,-0.19
2023-02-28T06:11:52.694Z,-0.14
2023-02-28T06:14:20.874Z,-0.11
2023-02-28T06:16:47.786Z,-0.08
2023-02-28T06:19:15.839Z,-0.04
2023-02-28T06:21:43.343Z,-0.02
2023-02-28T06:24:11.081Z,0.02
2023-02-28T06:26:38.017Z,0.08
2023-02-28T06:29:04.883Z,0.13
2023-02-28T06:31:32.331Z,0.18
2023-02-28T06:33:59.590Z,0.19
2023-02-28T06:36:26.350Z,0.18
2023-02-28T06:38:55.453Z,0.26
2023-02-28T06:41:25.168Z,0.36
2023-02-28T06:43:53.106Z,0.47
2023-02-28T06:46:20.401Z,0.57
2023-02-28T06:48:47.640Z,0.62
2023-02-28T06:51:20.974Z,0.73
2023-02-28T06:53:47.831Z,0.82
2023-02-28T06:56:16.883Z,0.93
2023-02-28T06:58:48.882Z,0.96
2023-02-28T07:01:16.264Z,0.97
2023-02-28T07:03:43.264Z,0.98
2023-02-28T07:06:10.088Z,1.01
2023-02-28T07:08:37.132Z,1.03
2023-02-28T07:11:04.957Z,1.08
2023-02-28T07:13:32.385Z,1.16
2023-02-28T07:16:02.001Z,1.25
2023-02-28T07:18:29.484Z,1.34
2023-02-28T07:20:56.401Z,1.42
2023-02-28T07:23:23.670Z,1.49
2023-02-28T07:25:51.767Z,1.53
2023-02-28T07:28:18.575Z,1.58
2023-02-28T07:30:45.473Z,1.66
2023-02-28T07:33:12.375Z,1.73
2023-02-28T07:35:39.143Z,1.77
2023-02-28T07:38:08.015Z,1.89
2023-02-28T07:40:35.497Z,1.92
2023-02-28T07:43:03.790Z,1.96
2023-02-28T07:45:34.903Z,2.00
2023-02-28T07:48:01.905Z,2.04
2023-02-28T07:50:31.299Z,2.07
2023-02-28T07:53:01.377Z,2.11
2023-02-28T07:55:28.179Z,2.18
2023-02-28T07:57:54.926Z,2.20
2023-02-28T08:00:22.384Z,2.30
2023-02-28T08:02:49.298Z,2.40
2023-02-28T08:05:17.007Z,2.45
2023-02-28T08:07:43.852Z,2.51
2023-02-28T08:10:10.975Z,2.62
2023-02-28T08:12:37.808Z,2.70
2023-02-28T08:15:05.000Z,2.76
2023-02-28T08:17:33.691Z,2.86
2023-02-28T08:20:02.002Z,2.98
2023-02-28T08:22:29.425Z,3.12
2023-02-28T08:24:56.369Z,3.31
2023-02-28T08:27:23.088Z,3.52
2023-02-28T08:29:49.841Z,3.66
2023-02-28T08:32:29.006Z,3.64
2023-02-28T08:34:57.498Z,3.95
2023-02-28T08:37:24.680Z,4.13
2023-02-28T08:39:54.725Z,4.26
2023-02-28T08:42:24.258Z,4.36
2023-02-28T08:44:51.212Z,4.50
2023-02-28T08:47:18.644Z,4.61
2023-02-28T08:49:45.550Z,4.67
2023-02-28T08:52:12.455Z,4.79
2023-02-28T08:54:39.354Z,4.92
2023-02-28T08:57:06.259Z,5.06
2023-02-28T08:59:33.327Z,5.25
2023-02-28T09:02:00.186Z,5.47
2023-02-28T09:04:26.972Z,5.68
2023-02-28T09:06:54.287Z,5.78
2023-02-28T09:09:21.092Z,5.89
2023-02-28T09:11:47.856Z,5.91
2023-02-28T09:14:14.624Z,5.97
2023-02-28T09:16:41.470Z,6.23
2023-02-28T09:19:12.482Z,6.55
2023-02-28T09:21:39.824Z,6.95
2023-02-28T09:24:07.032Z,7.43
2023-02-28T09:26:42.588Z,7.92
2023-02-28T09:29:15.069Z,8.38
2023-02-28T09:31:42.041Z,9.24
2023-02-28T09:34:09.073Z,9.64
2023-02-28T09:36:44.730Z,10.17
2023-02-28T09:39:15.227Z,10.59
2023-02-28T09:41:50.716Z,10.96
2023-02-28T09:44:37.719Z,11.08
2023-02-28T09:47:33.669Z,10.50
2023-02-28T09:50:16.837Z,9.76
2023-02-28T09:52:49.478Z,8.97
2023-02-28T09:55:21.731Z,8.53
2023-02-28T09:57:51.375Z,8.21
2023-02-28T10:00:33.022Z,8.09
2023-02-28T10:03:17.926Z,8.06
2023-02-28T10:05:56.901Z,8.01
2023-02-28T10:08:30.580Z,7.96
2023-02-28T10:11:11.051Z,7.84
2023-02-28T10:14:01.874Z,7.73
2023-02-28T10:16:31.703Z,7.57
2023-02-28T10:19:10.969Z,7.36
2023-02-28T10:21:50.459Z,7.14
2023-02-28T10:24:26.486Z,7.03
2023-02-28T10:27:10.613Z,7.01
2023-02-28T10:29:40.965Z,6.91
2023-02-28T10:32:08.459Z,6.74
2023-02-28T10:34:35.309Z,6.48
2023-02-28T10:37:08.048Z,6.21
2023-02-28T10:39:39.824Z,5.90
2023-02-28T10:42:22.333Z,5.70
2023-02-28T10:44:49.266Z,5.63
2023-02-28T10:47:18.228Z,5.66
2023-02-28T10:49:50.618Z,5.75
2023-02-28T10:52:38.040Z,5.80
2023-02-28T10:55:26.052Z,5.96
2023-02-28T10:57:53.455Z,6.27
2023-02-28T11:00:25.866Z,6.47
2023-02-28T11:02:52.720Z,6.70
2023-02-28T11:05:26.283Z,6.87
2023-02-28T11:08:13.158Z,6.93
2023-02-28T11:10:40.674Z,6.95
2023-02-28T11:13:07.550Z,6.99
2023-02-28T11:15:35.712Z,6.96
2023-02-28T11:18:31.141Z,6.79
2023-02-28T11:21:01.355Z,6.73
2023-02-28T11:23:31.322Z,6.79
2023-02-28T11:26:01.593Z,6.75
2023-02-28T11:28:33.000Z,6.65
2023-02-28T11:31:11.757Z,6.51
2023-02-28T11:33:46.362Z,6.28
2023-02-28T11:36:18.397Z,6.18
2023-02-28T11:38:46.681Z,6.04
2023-02-28T11:41:24.183Z,5.96
2023-02-28T11:44:11.633Z,5.80
2023-02-28T11:46:55.471Z,5.58
2023-02-28T11:49:53.373Z,5.34
2023-02-28T11:52:39.903Z,5.13
2023-02-28T11:55:36.551Z,5.10
2023-02-28T11:58:25.165Z,5.03
2023-02-28T12:01:01.121Z,4.89
2023-02-28T12:03:46.329Z,4.80
2023-02-28T12:06:19.519Z,4.74
2023-02-28T12:09:14.406Z,4.68
2023-02-28T12:11:58.382Z,4.61
2023-02-28T12:14:43.217Z,4.50
2023-02-28T12:17:28.501Z,4.37
2023-02-28T12:20:03.050Z,4.24
2023-02-28T12:23:15.552Z,4.10
2023-02-28T12:25:58.391Z,3.98
2023-02-28T12:28:32.753Z,3.92
2023-02-28T12:31:13.190Z,3.92
2023-02-28T12:33:45.923Z,3.88
2023-02-28T12:36:19.543Z,3.93
2023-02-28T12:38:56.395Z,3.93
2023-02-28T12:41:28.174Z,3.93
2023-02-28T12:44:06.014Z,3.85
2023-02-28T12:46:51.437Z,3.84
2023-02-28T12:49:32.208Z,3.86
2023-02-28T12:52:02.061Z,3.88
2023-02-28T12:54:45.361Z,3.90
2023-02-28T12:58:10.892Z,3.86
2023-02-28T13:00:49.613Z,3.85
2023-02-28T13:03:33.090Z,3.85
2023-02-28T13:06:32.748Z,3.85
2023-02-28T13:09:10.935Z,3.86
2023-02-28T13:11:49.576Z,3.86
2023-02-28T13:14:33.114Z,3.87
2023-02-28T13:17:12.837Z,3.89
2023-02-28T13:19:54.711Z,3.91
2023-02-28T13:22:43.043Z,3.93
2023-02-28T13:25:22.134Z,3.98
2023-02-28T13:28:01.439Z,4.02
2023-02-28T13:30:50.321Z,4.04
2023-02-28T13:33:35.761Z,4.02
2023-02-28T13:36:10.579Z,4.00
2023-02-28T13:38:43.799Z,4.00
2023-02-28T13:41:32.260Z,3.95
2023-02-28T13:44:18.281Z,3.92
2023-02-28T13:46:48.236Z,3.87
2023-02-28T13:49:27.155Z,3.79
2023-02-28T13:52:15.654Z,3.75
2023-02-28T13:55:25.942Z,3.75
2023-02-28T13:58:13.405Z,3.70
2023-02-28T14:00:52.643Z,3.63
2023-02-28T14:03:23.121Z,3.61
2023-02-28T14:06:24.528Z,3.60
2023-02-28T14:08:57.133Z,3.54
2023-02-28T14:11:36.158Z,3.60
2023-02-28T14:15:16.011Z,3.60
2023-02-28T14:17:42.959Z,3.58
2023-02-28T14:20:16.902Z,3.56
2023-02-28T14:22:58.659Z,3.52
2023-02-28T14:25:47.043Z,3.49
2023-02-28T14:28:28.620Z,3.45
2023-02-28T14:31:13.866Z,3.45
2023-02-28T14:34:03.290Z,3.42
2023-02-28T14:36:37.448Z,3.41
2023-02-28T14:39:08.464Z,3.38
2023-02-28T14:41:39.400Z,3.37
2023-02-28T14:44:20.468Z,3.40
2023-02-28T14:47:04.532Z,3.39
2023-02-28T14:49:36.384Z,3.39
2023-02-28T14:52:06.579Z,3.39
2023-02-28T14:54:33.923Z,3.39
2023-02-28T14:57:00.711Z,3.38
2023-02-28T14:59:29.883Z,3.36
2023-02-28T15:02:20.924Z,3.35
2023-02-28T15:05:17.245Z,3.32
2023-02-28T15:07:45.302Z,3.29
2023-02-28T15:10:16.143Z,3.26
2023-02-28T15:12:51.313Z,3.23
2023-02-28T15:15:22.628Z,3.22
2023-02-28T15:17:56.372Z,3.20
2023-02-28T15:20:25.129Z,3.16
2023-02-28T15:22:56.408Z,3.11
2023-02-28T15:25:24.309Z,3.06
2023-02-28T15:27:55.851Z,3.01
2023-02-28T15:30:27.833Z,2.96
2023-02-28T15:33:19.515Z,2.91
2023-02-28T15:35:48.707Z,2.86
2023-02-28T15:38:18.763Z,2.83
2023-02-28T15:41:26.504Z,2.79
2023-02-28T15:44:16.921Z,2.74
2023-02-28T15:46:54.690Z,2.71
2023-02-28T15:49:23.709Z,2.67
2023-02-28T15:51:53.321Z,2.65
2023-02-28T15:54:27.908Z,2.61
2023-02-28T15:56:58.414Z,2.58
2023-02-28T15:59:28.409Z,2.55
2023-02-28T16:02:11.015Z,2.52
2023-02-28T16:04:54.564Z,2.51
2023-02-28T16:07:21.500Z,2.48
2023-02-28T16:09:48.829Z,2.46
2023-02-28T16:12:15.836Z,2.47
2023-02-28T16:14:43.252Z,2.46
2023-02-28T16:17:22.128Z,2.46
2023-02-28T16:19:49.277Z,2.46
2023-02-28T16:22:16.317Z,2.44
2023-02-28T16:24:47.806Z,2.43
2023-02-28T16:27:24.356Z,2.44
2023-02-28T16:29:54.577Z,2.44
2023-02-28T16:32:21.892Z,2.44
2023-02-28T16:34:48.854Z,2.43
2023-02-28T16:37:18.208Z,2.41
2023-02-28T16:39:46.032Z,2.39
2023-02-28T16:42:22.973Z,2.38
2023-02-28T16:44:49.971Z,2.36
2023-02-28T16:47:17.112Z,2.35
2023-02-28T16:49:44.193Z,2.33
2023-02-28T16:52:12.235Z,2.31
2023-02-28T16:54:40.337Z,2.29
2023-02-28T16:57:15.740Z,2.27
2023-02-28T16:59:42.605Z,2.26
2023-02-28T17:02:14.660Z,2.24
2023-02-28T17:04:41.554Z,2.21
2023-02-28T17:07:14.058Z,2.19
2023-02-28T17:09:43.228Z,2.17
2023-02-28T17:12:11.598Z,2.15
2023-02-28T17:14:38.697Z,2.13
2023-02-28T17:17:06.655Z,2.11
2023-02-28T17:19:36.528Z,2.09
2023-02-28T17:22:03.644Z,2.06
2023-02-28T17:24:31.514Z,2.03
2023-02-28T17:26:58.615Z,2.01
2023-02-28T17:29:25.760Z,1.99
2023-02-28T17:31:54.203Z,1.96
2023-02-28T17:34:21.940Z,1.95
2023-02-28T17:36:51.482Z,1.92
2023-02-28T17:39:24.483Z,1.90
2023-02-28T17:41:52.739Z,1.88
2023-02-28T17:44:20.694Z,1.84
2023-02-28T17:46:47.755Z,1.82
2023-02-28T17:49:14.617Z,1.81
2023-02-28T17:51:41.520Z,1.79
2023-02-28T17:54:08.439Z,1.79
2023-02-28T17:56:35.495Z,1.78
2023-02-28T17:59:02.859Z,1.78
2023-02-28T18:01:29.858Z,1.76
2023-02-28T18:03:56.712Z,1.75
2023-02-28T18:06:25.445Z,1.72
2023-02-28T18:08:52.540Z,1.70
2023-02-28T18:11:20.948Z,1.68
2023-02-28T18:13:49.949Z,1.67
2023-02-28T18:16:18.058Z,1.65
2023-02-28T18:18:45.445Z,1.64
2023-02-28T18:21:14.731Z,1.62
2023-02-28T18:23:47.746Z,1.60
2023-02-28T18:26:16.655Z,1.59
2023-02-28T18:28:44.636Z,1.58
2023-02-28T18:31:15.656Z,1.58
2023-02-28T18:33:43.780Z,1.56
2023-02-28T18:36:10.598Z,1.54
2023-02-28T18:38:37.406Z,1.54
2023-02-28T18:41:06.639Z,1.53
2023-02-28T18:43:34.792Z,1.52
2023-02-28T18:46:11.343Z,1.51
2023-02-28T18:48:38.652Z,1.50
2023-02-28T18:51:07.457Z,1.49
2023-02-28T18:53:36.136Z,1.48
2023-02-28T18:56:04.822Z,1.47
2023-02-28T18:58:34.977Z,1.45
2023-02-28T19:01:04.578Z,1.43
2023-02-28T19:03:31.599Z,1.41
2023-02-28T19:05:59.976Z,1.42
2023-02-28T19:08:26.854Z,1.41
2023-02-28T19:10:53.898Z,1.40
2023-02-28T19:13:21.076Z,1.40
2023-02-28T19:15:48.479Z,1.39
2023-02-28T19:18:15.648Z,1.39
2023-02-28T19:20:43.021Z,1.33
2023-02-28T19:23:11.315Z,1.37
2023-02-28T19:25:42.393Z,1.37
2023-02-28T19:28:09.582Z,1.36
2023-02-28T19:30:37.332Z,1.34
2023-02-28T19:33:04.704Z,1.33
2023-02-28T19:35:31.579Z,1.33
2023-02-28T19:37:59.615Z,1.32
2023-02-28T19:40:26.770Z,1.32
2023-02-28T19:42:53.596Z,1.30
2023-02-28T19:45:20.387Z,1.30
2023-02-28T19:47:47.186Z,1.30
2023-02-28T19:50:13.969Z,1.29
2023-02-28T19:52:42.688Z,1.30
2023-02-28T19:55:10.525Z,1.29
2023-02-28T19:57:37.472Z,1.29
2023-02-28T20:00:05.234Z,1.30
2023-02-28T20:02:40.264Z,1.28
2023-02-28T20:05:08.081Z,1.29
2023-02-28T20:07:35.717Z,1.28
2023-02-28T20:10:02.514Z,1.28
2023-02-28T20:12:29.393Z,1.28
2023-02-28T20:14:56.345Z,1.27
2023-02-28T20:17:24.211Z,1.27
2023-02-28T20:19:51.254Z,1.26
2023-02-28T20:22:18.063Z,1.25
2023-02-28T20:24:46.744Z,1.25
2023-02-28T20:27:13.721Z,1.25
2023-02-28T20:29:40.879Z,1.25
2023-02-28T20:32:08.084Z,1.24
2023-02-28T20:34:34.951Z,1.23
2023-02-28T20:37:02.079Z,1.23
2023-02-28T20:39:28.954Z,1.23
2023-02-28T20:41:55.715Z,1.21
2023-02-28T20:44:22.736Z,1.19
2023-02-28T20:46:49.522Z,1.16
2023-02-28T20:49:16.429Z,1.15
2023-02-28T20:51:43.260Z,1.14
2023-02-28T20:54:13.562Z,1.13
2023-02-28T20:56:40.657Z,1.14
2023-02-28T20:59:10.752Z,1.14
2023-02-28T21:01:38.083Z,1.13
2023-02-28T21:04:06.513Z,1.11
2023-02-28T21:06:37.298Z,1.10
2023-02-28T21:09:08.880Z,1.08
2023-02-28T21:11:38.466Z,1.07
2023-02-28T21:14:14.225Z,1.06
2023-02-28T21:16:41.623Z,1.05
2023-02-28T21:19:08.568Z,1.05
2023-02-28T21:21:38.627Z,1.03
2023-02-28T21:24:06.440Z,1.02
2023-02-28T21:26:33.769Z,1.01
2023-02-28T21:29:02.278Z,0.98
2023-02-28T21:31:31.403Z,0.97
2023-02-28T21:34:00.626Z,0.97
2023-02-28T21:36:32.572Z,0.96
2023-02-28T21:39:02.993Z,0.94
2023-02-28T21:41:29.939Z,0.92
2023-02-28T21:43:56.885Z,0.87
2023-02-28T21:46:26.466Z,0.86
2023-02-28T21:48:54.491Z,0.86
2023-02-28T21:51:25.462Z,0.86
2023-02-28T21:53:52.861Z,0.85
2023-02-28T21:56:25.246Z,0.85
2023-02-28T21:58:59.700Z,0.86
2023-02-28T22:01:34.150Z,0.86
2023-02-28T22:04:02.553Z,0.85
2023-02-28T22:06:32.476Z,0.85
2023-02-28T22:09:02.124Z,0.83
2023-02-28T22:11:29.183Z,0.83
2023-02-28T22:13:57.510Z,0.82
2023-02-28T22:16:29.399Z,0.81
2023-02-28T22:18:58.076Z,0.81
2023-02-28T22:21:24.942Z,0.81
2023-02-28T22:23:51.884Z,0.81
2023-02-28T22:26:21.050Z,0.79
2023-02-28T22:28:48.684Z,0.78
2023-02-28T22:31:25.446Z,0.76
2023-02-28T22:33:55.479Z,0.74
2023-02-28T22:36:23.253Z,0.72
2023-02-28T22:38:50.896Z,0.71
2023-02-28T22:41:20.342Z,0.68
2023-02-28T22:43:52.713Z,0.66
2023-02-28T22:46:21.245Z,0.66
2023-02-28T22:48:48.408Z,0.65
2023-02-28T22:51:18.159Z,0.63
2023-02-28T22:53:47.679Z,0.62
2023-02-28T22:56:16.438Z,0.61
2023-02-28T22:58:44.921Z,0.59
2023-02-28T23:01:15.424Z,0.58
2023-02-28T23:03:43.274Z,0.56
2023-02-28T23:06:25.329Z,0.55
2023-02-28T23:08:55.300Z,0.51
2023-02-28T23:11:34.762Z,0.54
2023-02-28T23:14:01.770Z,0.54
2023-02-28T23:16:30.410Z,0.53
2023-02-28T23:18:59.476Z,0.53
2023-02-28T23:21:26.720Z,0.51
2023-02-28T23:23:54.314Z,0.51
2023-02-28T23:26:21.491Z,0.51
2023-02-28T23:28:48.944Z,0.50
2023-02-28T23:31:15.814Z,0.44
2023-02-28T23:33:42.866Z,0.48
2023-02-28T23:36:11.727Z,0.48
2023-02-28T23:38:40.426Z,0.48
2023-02-28T23:41:11.638Z,0.48
2023-02-28T23:43:40.130Z,0.47
2023-02-28T23:46:08.199Z,0.44
2023-02-28T23:48:35.448Z,0.43
2023-02-28T23:51:08.827Z,0.42
2023-02-28T23:53:38.110Z,0.40
2023-02-28T23:56:06.830Z,0.40
2023-02-28T23:58:34.567Z,0.41
